Time;durP1;ratioP1;P1;durP2;ratioP2;P2;SDS_P1;SDS_P2;PMS_P1;PMS_P2;Temp;Humidity;BMP_temperature;BMP_pressure;BME280_temperature;BME280_humidity;BME280_pressure;Samples;Min_cycle;Max_cycle;Signal;HPM_P1;HPM_P2
2022/09/18 00:01:19;;;;;;;8.40;6.23;;;;;;;15.92;72.75;99033.86;1710548;83;21303;-73
2022/09/18 00:03:46;;;;;;;6.67;5.97;;;;;;;15.88;72.71;99032.95;1710816;82;22753;-73
2022/09/18 00:06:20;;;;;;;7.60;6.03;;;;;;;15.83;72.79;99026.44;1710810;82;21760;-73
2022/09/18 00:08:51;;;;;;;6.63;5.80;;;;;;;15.80;72.90;99033.82;1707073;82;21768;-72
2022/09/18 00:11:18;;;;;;;7.87;5.40;;;;;;;15.79;73.02;99034.92;1688018;83;22168;-72
2022/09/18 00:13:46;;;;;;;8.93;6.43;;;;;;;15.80;73.09;99036.52;1715406;82;21789;-72
2022/09/18 00:16:13;;;;;;;8.93;6.30;;;;;;;15.79;73.18;99042.43;1714523;82;22271;-72
2022/09/18 00:18:40;;;;;;;8.10;6.30;;;;;;;15.81;73.25;99040.20;1712034;82;21811;-72
2022/09/18 00:21:17;;;;;;;8.10;6.30;;;;;;;15.85;73.29;99043.03;1710479;82;21769;-72
2022/09/18 00:23:43;;;;;;;9.20;6.43;;;;;;;15.91;73.32;99039.03;1710317;82;21846;-72
2022/09/18 00:26:11;;;;;;;7.47;6.20;;;;;;;15.98;73.35;99031.77;1709014;82;21698;-72
2022/09/18 00:28:38;;;;;;;8.67;6.27;;;;;;;16.05;73.27;99038.75;1704189;82;21642;-72
2022/09/18 00:31:11;;;;;;;6.67;5.67;;;;;;;16.07;73.13;99023.84;1703534;83;21905;-72
2022/09/18 00:33:39;;;;;;;10.10;7.37;;;;;;;16.08;72.97;99022.71;1710500;82;22341;-72
2022/09/18 00:36:09;;;;;;;7.33;5.93;;;;;;;16.07;72.94;99017.67;1710344;83;21786;-72
2022/09/18 00:38:37;;;;;;;8.38;6.03;;;;;;;16.04;72.85;99013.73;1711978;82;22346;-73
2022/09/18 00:41:07;;;;;;;6.43;5.77;;;;;;;15.95;72.77;98994.94;1710751;83;21069;-72
2022/09/18 00:43:36;;;;;;;6.97;5.87;;;;;;;15.95;72.77;98994.94;1710077;82;21939;-72
2022/09/18 00:46:07;;;;;;;6.77;5.50;;;;;;;15.92;72.86;98996.16;1701683;84;21727;-72
2022/09/18 00:49:02;;;;;;;6.13;5.40;;;;;;;15.89;72.97;98989.56;1700829;84;21761;-73
2022/09/18 00:51:33;;;;;;;5.80;4.90;;;;;;;15.88;73.02;98981.80;1691842;83;21728;-71
2022/09/18 00:54:22;;;;;;;6.65;4.67;;;;;;;15.85;73.09;98979.77;1710770;83;25344;-71
2022/09/18 00:56:52;;;;;;;5.30;4.63;;;;;;;15.80;73.16;98976.72;1710599;83;21094;-71
2022/09/18 00:59:24;;;;;;;8.27;5.30;;;;;;;15.76;73.29;98965.05;1709051;82;22245;-71
2022/09/18 01:01:57;;;;;;;6.60;5.00;;;;;;;15.71;73.44;98954.47;1709700;82;21538;-72
2022/09/18 01:04:27;;;;;;;5.00;4.20;;;;;;;15.71;73.57;98955.81;1713399;83;22236;-71
2022/09/18 01:07:41;;;;;;;5.90;5.00;;;;;;;15.69;73.67;98945.92;1715410;82;21681;-72
2022/09/18 01:10:44;;;;;;;5.43;4.70;;;;;;;15.68;73.77;98943.80;1712702;82;21197;-72
2022/09/18 01:13:35;;;;;;;6.03;4.70;;;;;;;15.68;73.85;98941.67;1701850;84;21737;-73
2022/09/18 01:16:31;;;;;;;5.80;4.00;;;;;;;15.65;73.97;98936.35;1701980;84;21709;-72
2022/09/18 01:19:33;;;;;;;5.90;4.17;;;;;;;15.64;74.02;98930.75;1709680;83;22306;-72
2022/09/18 01:22:23;;;;;;;4.97;4.20;;;;;;;15.64;74.11;98928.06;1706979;82;21685;-72
2022/09/18 01:25:51;;;;;;;6.53;4.43;;;;;;;15.62;74.12;98927.59;1674190;84;21788;-72
2022/09/18 01:28:37;;;;;;;5.27;4.33;;;;;;;15.61;74.20;98915.26;1672009;85;21874;-73
2022/09/18 01:31:30;;;;;;;4.50;4.00;;;;;;;15.63;74.29;98900.11;1693531;84;21713;-72
2022/09/18 01:34:15;;;;;;;4.77;3.87;;;;;;;15.66;74.28;98894.07;1675074;85;21674;-72
2022/09/18 01:36:53;;;;;;;4.83;4.03;;;;;;;15.65;74.21;98894.63;1706342;82;21777;-73
2022/09/18 01:39:48;;;;;;;4.37;3.80;;;;;;;15.63;74.21;98883.97;1722825;82;21810;-72
2022/09/18 01:42:21;;;;;;;5.15;4.15;;;;;;;15.62;74.23;98873.77;1710715;82;21712;-72
2022/09/18 01:44:49;;;;;;;5.67;4.53;;;;;;;15.62;74.23;98871.07;1631808;85;21676;-72
2022/09/18 01:47:22;;;;;;;4.73;3.87;;;;;;;15.60;74.23;98872.55;1685442;85;21663;-72
2022/09/18 01:50:03;;;;;;;4.57;3.70;;;;;;;15.60;74.27;98866.59;1711470;82;21699;-71
2022/09/18 01:52:55;;;;;;;6.80;4.10;;;;;;;15.62;74.29;98856.27;1684827;84;21837;-73
2022/09/18 01:55:30;;;;;;;6.37;4.35;;;;;;;15.64;74.27;98859.42;1685231;83;21786;-72
2022/09/18 01:58:11;;;;;;;6.22;4.35;;;;;;;15.68;74.23;98859.58;1681106;83;21075;-72
2022/09/18 02:00:50;;;;;;;4.80;4.27;;;;;;;15.70;74.18;98849.28;1726134;82;20976;-72
2022/09/18 02:03:56;;;;;;;4.27;3.80;;;;;;;15.72;74.10;98851.06;1712061;82;21642;-72
2022/09/18 02:06:47;;;;;;;6.53;3.70;;;;;;;15.75;74.05;98853.65;1704514;83;21751;-72
2022/09/18 02:09:26;;;;;;;5.43;4.30;;;;;;;15.76;73.98;98845.80;1714854;83;22148;-71
2022/09/18 02:11:57;;;;;;;6.83;4.30;;;;;;;15.76;73.90;98847.95;1688718;83;21700;-72
2022/09/18 02:14:38;;;;;;;4.40;3.70;;;;;;;15.78;73.86;98838.18;1706267;82;21702;-71
2022/09/18 02:17:46;;;;;;;4.80;3.90;;;;;;;15.79;73.73;98841.09;1702288;84;22109;-72
2022/09/18 02:20:30;;;;;;;4.87;3.93;;;;;;;15.78;73.64;98843.00;1701485;84;22286;-71
2022/09/18 02:23:13;;;;;;;5.20;3.93;;;;;;;15.82;73.61;98837.73;1702358;84;21642;-72
2022/09/18 02:26:03;;;;;;;4.43;3.73;;;;;;;15.85;73.55;98833.03;1702208;83;21740;-71
2022/09/18 02:28:43;;;;;;;4.47;3.83;;;;;;;15.86;73.45;98830.02;1702295;83;21672;-72
2022/09/18 02:31:24;;;;;;;4.97;3.73;;;;;;;15.86;73.43;98823.83;1662070;85;21726;-71
2022/09/18 02:34:05;;;;;;;4.53;3.63;;;;;;;15.89;73.38;98819.13;1686317;85;21718;-72
2022/09/18 02:37:02;;;;;;;4.13;3.33;;;;;;;15.91;73.32;98814.20;1686543;85;22127;-73
2022/09/18 02:39:51;;;;;;;5.80;3.63;;;;;;;15.89;73.20;98808.35;1686565;84;21725;-71
2022/09/18 02:42:59;;;;;;;4.07;3.20;;;;;;;15.86;73.17;98796.91;1686349;85;21869;-72
2022/09/18 02:45:58;;;;;;;4.83;3.57;;;;;;;15.85;73.18;98784.01;1692139;82;21795;-71
2022/09/18 02:49:06;;;;;;;4.40;3.90;;;;;;;15.81;73.17;98776.95;1686537;84;21809;-71
2022/09/18 02:51:48;;;;;;;5.07;3.77;;;;;;;15.77;73.29;98772.80;1689483;82;21815;-72
2022/09/18 02:54:41;;;;;;;4.93;3.67;;;;;;;15.78;73.28;98758.77;1702606;83;21820;-72
2022/09/18 02:57:28;;;;;;;4.67;4.17;;;;;;;15.76;73.33;98760.47;1709519;82;21787;-71
2022/09/18 03:00:15;;;;;;;5.70;3.63;;;;;;;15.72;73.32;98754.16;1721633;83;21714;-71
2022/09/18 03:02:52;;;;;;;4.97;4.03;;;;;;;15.71;73.42;98750.69;1691983;83;21844;-71
2022/09/18 03:05:37;;;;;;;6.70;3.93;;;;;;;15.71;73.47;98749.34;1709549;83;21063;-72
2022/09/18 03:08:18;;;;;;;5.47;4.10;;;;;;;15.73;73.53;98743.64;1704751;82;21733;-71
2022/09/18 03:10:53;;;;;;;4.47;3.93;;;;;;;15.73;73.48;98739.60;1702240;84;21737;-71
2022/09/18 03:13:34;;;;;;;4.40;4.00;;;;;;;15.71;73.45;98736.45;1702298;84;21709;-71
2022/09/18 03:16:14;;;;;;;4.20;3.70;;;;;;;15.69;73.52;98733.30;1675577;84;21810;-71
2022/09/18 03:18:56;;;;;;;4.60;3.87;;;;;;;15.68;73.53;98727.13;1677730;83;21716;-71
2022/09/18 03:21:27;;;;;;;4.13;3.73;;;;;;;15.66;73.54;98724.01;1714584;82;21027;-71
2022/09/18 03:23:59;;;;;;;4.10;3.70;;;;;;;15.63;73.61;98722.48;1714945;82;21699;-72
2022/09/18 03:26:31;;;;;;;4.87;3.50;;;;;;;15.63;73.69;98723.30;1715342;83;21716;-71
2022/09/18 03:29:10;;;;;;;4.33;3.60;;;;;;;15.60;73.71;98725.31;1715611;82;21732;-72
2022/09/18 03:31:42;;;;;;;5.00;3.70;;;;;;;15.61;73.76;98719.37;1715608;82;22180;-72
2022/09/18 03:34:17;;;;;;;3.63;2.80;;;;;;;15.60;73.81;98713.20;1715215;83;21739;-72
2022/09/18 03:36:57;;;;;;;4.27;3.53;;;;;;;15.61;73.83;98705.34;1688718;83;21679;-71
2022/09/18 03:39:37;;;;;;;3.90;3.23;;;;;;;15.57;73.83;98696.38;1690319;83;21672;-72
2022/09/18 03:42:18;;;;;;;4.72;3.65;;;;;;;15.53;73.87;98687.41;1716379;82;21723;-72
2022/09/18 03:44:58;;;;;;;5.20;3.30;;;;;;;15.47;74.02;98678.77;1705867;82;21201;-72
2022/09/18 03:47:33;;;;;;;4.00;3.53;;;;;;;15.44;74.19;98677.31;1682091;85;21702;-72
2022/09/18 03:50:00;;;;;;;3.73;3.20;;;;;;;15.42;74.35;98678.19;1689500;82;21792;-72
2022/09/18 03:52:29;;;;;;;4.40;3.67;;;;;;;15.42;74.37;98673.59;1706884;82;21644;-72
2022/09/18 03:54:58;;;;;;;4.57;3.50;;;;;;;15.42;74.41;98674.16;1718128;82;21628;-72
2022/09/18 03:57:34;;;;;;;3.87;3.47;;;;;;;15.41;74.50;98663.96;1700540;82;21729;-73
2022/09/18 04:00:22;;;;;;;5.87;3.90;;;;;;;15.41;74.66;98664.52;1634455;86;21771;-73
2022/09/18 04:02:49;;;;;;;5.17;3.93;;;;;;;15.42;74.67;98656.67;1638596;87;21742;-72
2022/09/18 04:05:35;;;;;;;4.50;4.00;;;;;;;15.41;74.73;98649.16;1674198;83;21769;-72
2022/09/18 04:08:20;;;;;;;4.93;4.13;;;;;;;15.41;74.63;98651.08;1706961;83;22092;-72
2022/09/18 04:10:57;;;;;;;4.20;3.57;;;;;;;15.37;74.57;98651.53;1708617;82;21750;-73
2022/09/18 04:13:25;;;;;;;4.23;3.73;;;;;;;15.37;74.62;98643.45;1710685;82;21833;-73
2022/09/18 04:15:52;;;;;;;5.40;3.70;;;;;;;15.35;74.89;98640.30;1665234;84;21823;-73
2022/09/18 04:18:18;;;;;;;4.47;3.63;;;;;;;15.38;74.74;98632.91;1711239;82;22759;-73
2022/09/18 04:20:45;;;;;;;5.40;3.70;;;;;;;15.37;74.65;98617.34;1709504;82;22357;-73
2022/09/18 04:23:13;;;;;;;4.40;4.00;;;;;;;15.37;74.63;98611.95;1710881;83;21759;-73
2022/09/18 04:25:41;;;;;;;4.60;3.37;;;;;;;15.37;74.62;98608.48;1712983;82;21731;-72
2022/09/18 04:28:11;;;;;;;4.20;3.70;;;;;;;15.35;74.59;98600.73;1706473;83;21677;-73
2022/09/18 04:30:39;;;;;;;4.40;3.83;;;;;;;15.32;74.59;98602.75;1709897;82;21732;-72
2022/09/18 04:33:06;;;;;;;4.20;3.67;;;;;;;15.29;74.63;98608.80;1710389;82;21260;-72
2022/09/18 04:35:35;;;;;;;4.43;3.53;;;;;;;15.28;74.72;98607.23;1710572;83;22344;-73
2022/09/18 04:38:01;;;;;;;4.07;3.60;;;;;;;15.28;74.73;98601.08;1721552;82;21763;-73
2022/09/18 04:40:28;;;;;;;5.43;3.80;;;;;;;15.22;74.80;98605.32;1710678;82;21729;-72
2022/09/18 04:42:54;;;;;;;5.00;3.80;;;;;;;15.20;74.86;98604.89;1714160;82;21757;-74
2022/09/18 04:45:21;;;;;;;4.67;3.80;;;;;;;15.19;74.94;98595.80;1727172;82;22246;-72
2022/09/18 04:47:49;;;;;;;3.97;3.50;;;;;;;15.20;74.96;98603.55;1714482;82;21732;-72
2022/09/18 04:50:17;;;;;;;4.73;3.50;;;;;;;15.21;75.00;98607.02;1715221;82;21735;-72
2022/09/18 04:53:03;;;;;;;4.90;3.30;;;;;;;15.17;74.99;98606.91;1716878;82;21736;-72
2022/09/18 04:55:33;;;;;;;5.00;4.07;;;;;;;15.19;75.15;98597.14;1724682;82;22314;-72
2022/09/18 04:58:01;;;;;;;4.37;3.70;;;;;;;15.18;75.17;98590.98;1703968;83;22140;-72
2022/09/18 05:00:30;;;;;;;5.03;4.30;;;;;;;15.19;75.23;98574.28;1714969;83;22128;-72
2022/09/18 05:02:58;;;;;;;7.13;4.23;;;;;;;15.17;75.30;98570.60;1714202;82;22250;-73
2022/09/18 05:05:27;;;;;;;4.90;3.70;;;;;;;15.17;75.34;98562.53;1706398;82;21764;-72
2022/09/18 05:07:56;;;;;;;5.70;4.73;;;;;;;15.16;75.43;98560.16;1705712;81;22263;-72
2022/09/18 05:10:23;;;;;;;7.63;5.00;;;;;;;15.16;75.47;98558.81;1648544;85;21772;-72
2022/09/18 05:12:51;;;;;;;6.07;4.90;;;;;;;15.13;75.68;98554.89;1710625;82;21705;-73
2022/09/18 05:15:18;;;;;;;5.27;4.13;;;;;;;15.11;75.63;98546.95;1710402;81;21740;-73
2022/09/18 05:17:47;;;;;;;6.40;5.00;;;;;;;15.11;75.85;98557.14;1710928;82;22301;-73
2022/09/18 05:20:13;;;;;;;5.57;4.70;;;;;;;15.11;75.85;98557.14;1710733;83;21750;-73
2022/09/18 05:22:46;;;;;;;6.37;5.10;;;;;;;15.12;75.93;98555.23;1710890;82;21847;-73
2022/09/18 05:25:14;;;;;;;5.87;4.90;;;;;;;15.15;76.00;98559.38;1711669;82;25406;-72
2022/09/18 05:27:40;;;;;;;5.30;4.50;;;;;;;15.15;76.02;98554.57;1709334;82;21074;-72
2022/09/18 05:30:09;;;;;;;6.27;5.17;;;;;;;15.16;76.05;98536.73;1710717;82;21751;-72
2022/09/18 05:32:38;;;;;;;6.53;5.20;;;;;;;15.19;75.97;98534.72;1710944;83;21689;-73
2022/09/18 05:35:05;;;;;;;7.77;5.13;;;;;;;15.19;76.12;98520.50;1714555;82;22254;-73
2022/09/18 05:37:32;;;;;;;6.73;6.03;;;;;;;15.21;76.15;98516.92;1713182;82;21886;-73
2022/09/18 05:39:59;;;;;;;6.07;5.33;;;;;;;15.19;76.24;98511.09;1710438;83;22232;-73
2022/09/18 05:42:26;;;;;;;5.93;5.27;;;;;;;15.20;76.29;98501.89;1710854;83;21795;-73
2022/09/18 05:44:52;;;;;;;6.43;5.63;;;;;;;15.20;76.32;98495.98;1710541;82;21747;-74
2022/09/18 05:47:20;;;;;;;6.67;5.87;;;;;;;15.22;76.35;98494.28;1710132;83;21811;-73
2022/09/18 05:49:47;;;;;;;5.57;4.83;;;;;;;15.23;76.35;98496.65;1712611;82;22176;-73
2022/09/18 05:52:13;;;;;;;6.93;5.27;;;;;;;15.25;76.42;98499.77;1715499;83;21792;-73
2022/09/18 05:54:41;;;;;;;6.47;5.43;;;;;;;15.27;76.43;98499.98;1713992;82;21754;-73
2022/09/18 05:57:08;;;;;;;5.57;4.93;;;;;;;15.30;76.42;98500.11;1710030;83;21813;-74
2022/09/18 05:59:35;;;;;;;6.80;5.50;;;;;;;15.33;76.42;98493.25;1710144;83;21685;-73
2022/09/18 06:02:03;;;;;;;6.80;5.93;;;;;;;15.34;76.42;98494.84;1710141;83;21784;-73
2022/09/18 06:04:34;;;;;;;7.00;5.87;;;;;;;15.37;76.43;98492.25;1681565;83;21780;-74
2022/09/18 06:07:04;;;;;;;7.20;6.40;;;;;;;15.41;76.47;98483.72;1709556;82;21201;-72
2022/09/18 06:09:31;;;;;;;7.40;6.43;;;;;;;15.46;76.49;98478.12;1710478;83;21757;-74
2022/09/18 06:11:58;;;;;;;6.50;5.73;;;;;;;15.52;76.48;98473.27;1714419;83;21646;-74
2022/09/18 06:14:25;;;;;;;7.10;6.10;;;;;;;15.55;76.42;98462.39;1713520;83;21758;-72
2022/09/18 06:16:52;;;;;;;6.53;5.03;;;;;;;15.53;76.32;98451.17;1710562;83;21791;-72
2022/09/18 06:19:19;;;;;;;7.93;6.57;;;;;;;15.55;76.37;98455.09;1710267;83;21784;-73
2022/09/18 06:21:47;;;;;;;7.33;6.53;;;;;;;15.56;76.35;98456.66;1710839;82;21731;-73
2022/09/18 06:24:15;;;;;;;10.10;6.90;;;;;;;15.56;76.33;98449.15;1710335;83;21799;-72
2022/09/18 06:26:43;;;;;;;8.13;6.70;;;;;;;15.55;76.32;98438.95;1709056;83;21744;-72
2022/09/18 06:29:10;;;;;;;8.47;6.80;;;;;;;15.55;76.29;98432.80;1714497;83;21705;-72
2022/09/18 06:31:38;;;;;;;7.10;6.40;;;;;;;15.51;76.31;98435.95;1712614;83;22113;-74
2022/09/18 06:34:07;;;;;;;8.47;6.67;;;;;;;15.50;76.38;98431.13;1713750;83;22302;-73
2022/09/18 06:36:34;;;;;;;7.70;6.60;;;;;;;15.54;76.45;98423.94;1714814;82;21796;-73
2022/09/18 06:39:06;;;;;;;8.50;6.85;;;;;;;15.59;76.48;98427.72;1695983;83;21701;-74
2022/09/18 06:41:34;;;;;;;7.50;6.70;;;;;;;15.64;76.50;98430.18;1711569;82;21091;-74
2022/09/18 06:44:02;;;;;;;10.00;7.80;;;;;;;15.68;76.50;98413.59;1710006;82;21785;-74
2022/09/18 06:46:37;;;;;;;9.20;7.87;;;;;;;15.70;76.42;98411.35;1708701;83;21776;-73
2022/09/18 06:49:08;;;;;;;16.95;12.82;;;;;;;15.73;76.48;98413.92;1705169;83;22190;-72
2022/09/18 06:51:35;;;;;;;19.23;16.30;;;;;;;15.75;76.41;98412.22;1710313;83;21083;-72
2022/09/18 06:54:04;;;;;;;23.57;19.30;;;;;;;15.71;76.32;98409.44;1710620;82;21732;-72
2022/09/18 06:56:32;;;;;;;30.13;25.50;;;;;;;15.72;76.35;98408.30;1710131;82;21781;-75
2022/09/18 06:58:58;;;;;;;26.40;23.57;;;;;;;15.74;76.34;98412.02;1710961;82;21734;-74
2022/09/18 07:01:25;;;;;;;24.93;22.23;;;;;;;15.76;76.40;98415.13;1710896;83;21669;-74
2022/09/18 07:03:53;;;;;;;22.83;18.97;;;;;;;15.83;76.57;98416.13;1710461;83;21792;-74
2022/09/18 07:06:22;;;;;;;14.33;12.83;;;;;;;15.83;76.57;98416.13;1710322;83;21585;-74
2022/09/18 07:08:50;;;;;;;10.30;9.10;;;;;;;15.91;76.38;98415.73;1709508;83;21790;-75
2022/09/18 07:11:21;;;;;;;8.68;7.78;;;;;;;15.94;76.35;98413.70;1647401;82;21699;-74
2022/09/18 07:13:47;;;;;;;10.13;8.40;;;;;;;16.00;76.25;98412.33;1710753;83;21420;-74
2022/09/18 07:16:15;;;;;;;7.73;6.83;;;;;;;16.06;76.07;98395.37;1713169;82;21728;-74
2022/09/18 07:18:42;;;;;;;6.90;5.43;;;;;;;16.06;76.07;98395.37;1715696;83;21439;-74
2022/09/18 07:21:10;;;;;;;6.20;5.50;;;;;;;16.09;76.06;98389.26;1713380;83;21129;-74
2022/09/18 07:23:38;;;;;;;5.87;5.27;;;;;;;16.13;76.09;98373.42;1710542;83;21062;-73
2022/09/18 07:26:05;;;;;;;5.37;4.27;;;;;;;16.21;76.05;98366.86;1710087;82;22320;-74
2022/09/18 07:28:33;;;;;;;6.47;5.30;;;;;;;16.24;76.10;98346.75;1710838;83;21059;-73
2022/09/18 07:31:04;;;;;;;6.20;5.07;;;;;;;16.25;75.80;98331.36;1706867;83;21601;-72
2022/09/18 07:33:31;;;;;;;6.00;4.97;;;;;;;16.24;75.80;98354.83;1712176;83;21099;-73
2022/09/18 07:36:01;;;;;;;5.93;4.80;;;;;;;16.32;75.90;98363.31;1715123;83;21059;-73
2022/09/18 07:38:29;;;;;;;4.92;4.22;;;;;;;16.40;75.74;98356.95;1712472;82;21943;-73
2022/09/18 07:41:02;;;;;;;5.63;4.83;;;;;;;16.44;75.71;98351.64;1710103;83;21086;-72
2022/09/18 07:43:30;;;;;;;5.40;4.30;;;;;;;16.48;75.77;98349.80;1710108;82;21012;-72
2022/09/18 07:45:58;;;;;;;5.63;4.73;;;;;;;16.51;75.53;98339.67;1710995;83;21067;-74
2022/09/18 07:48:28;;;;;;;6.33;4.53;;;;;;;16.57;75.51;98350.41;1710854;83;21066;-74
2022/09/18 07:50:57;;;;;;;5.50;4.03;;;;;;;16.63;75.19;98358.44;1710239;83;21661;-73
2022/09/18 07:53:25;;;;;;;4.70;3.83;;;;;;;16.71;75.35;98351.29;1710088;83;21162;-74
2022/09/18 07:55:54;;;;;;;4.97;3.97;;;;;;;16.78;75.15;98342.61;1711746;83;21168;-74
2022/09/18 07:58:23;;;;;;;4.60;4.00;;;;;;;16.79;74.94;98343.62;1713457;82;20980;-72
2022/09/18 08:01:01;;;;;;;5.47;3.83;;;;;;;16.83;74.88;98335.61;1708538;83;20967;-73
2022/09/18 08:03:29;;;;;;;4.40;3.90;;;;;;;16.90;74.72;98343.84;1710545;83;25710;-74
2022/09/18 08:05:59;;;;;;;4.37;3.47;;;;;;;16.93;74.58;98341.79;1713951;83;21016;-74
2022/09/18 08:08:26;;;;;;;5.00;3.23;;;;;;;16.96;74.49;98341.09;1715582;83;21003;-74
2022/09/18 08:10:57;;;;;;;6.17;3.05;;;;;;;16.98;74.39;98336.12;1710265;83;20987;-74
2022/09/18 08:13:42;;;;;;;5.00;3.20;;;;;;;17.00;74.27;98337.11;1710696;83;21075;-74
2022/09/18 08:16:26;;;;;;;4.00;3.00;;;;;;;17.04;74.28;98337.96;1698335;83;21645;-73
2022/09/18 08:18:57;;;;;;;4.78;3.30;;;;;;;17.10;74.19;98335.98;1666607;82;21642;-73
2022/09/18 08:21:31;;;;;;;4.23;3.40;;;;;;;17.17;74.15;98330.52;1708664;83;21176;-74
2022/09/18 08:24:00;;;;;;;4.10;3.13;;;;;;;17.27;74.03;98327.25;1710617;83;21035;-74
2022/09/18 08:26:27;;;;;;;4.33;3.10;;;;;;;17.32;73.85;98333.15;1707307;83;21054;-73
2022/09/18 08:28:54;;;;;;;4.40;2.87;;;;;;;17.37;73.81;98327.25;1710153;83;21119;-74
2022/09/18 08:31:21;;;;;;;4.27;2.80;;;;;;;17.46;73.81;98321.84;1710567;83;21027;-74
2022/09/18 08:33:51;;;;;;;4.60;3.40;;;;;;;17.52;73.60;98315.02;1711258;82;21101;-74
2022/09/18 08:36:17;;;;;;;5.07;3.30;;;;;;;17.65;73.54;98310.81;1710993;83;21049;-74
2022/09/18 08:38:54;;;;;;;4.28;3.10;;;;;;;17.73;73.36;98308.44;1712412;83;21019;-74
2022/09/18 08:42:08;;;;;;;3.30;2.73;;;;;;;17.75;73.11;98310.99;1686605;83;21052;-73
2022/09/18 08:44:50;;;;;;;4.03;3.07;;;;;;;17.80;72.99;98311.28;1715318;83;21055;-73
2022/09/18 08:47:25;;;;;;;3.75;2.98;;;;;;;17.87;72.72;98299.83;1715321;82;21015;-76
2022/09/18 08:50:00;;;;;;;4.10;3.07;;;;;;;17.83;72.36;98299.77;1715477;82;21488;-74
2022/09/18 08:52:30;;;;;;;4.73;3.50;;;;;;;17.83;72.21;98297.06;1713588;82;21873;-74
2022/09/18 08:55:07;;;;;;;4.43;3.37;;;;;;;17.86;72.12;98290.95;1710260;83;21833;-73
2022/09/18 08:57:46;;;;;;;4.37;3.20;;;;;;;17.90;71.97;98288.30;1683576;83;21363;-74
2022/09/18 09:00:25;;;;;;;5.53;3.40;;;;;;;17.95;71.86;98282.61;1708811;83;21011;-73
2022/09/18 09:03:05;;;;;;;5.70;3.50;;;;;;;17.96;71.75;98278.19;1706193;83;21066;-74
2022/09/18 09:05:45;;;;;;;4.20;3.00;;;;;;;17.99;71.71;98277.47;1708860;83;21636;-72
2022/09/18 09:08:49;;;;;;;4.73;3.40;;;;;;;18.04;71.76;98270.42;1709977;83;21432;-73
2022/09/18 09:11:30;;;;;;;3.90;2.90;;;;;;;18.11;71.77;98260.30;1685848;85;21067;-74
2022/09/18 09:14:18;;;;;;;4.53;3.12;;;;;;;18.15;71.66;98263.05;1690099;83;20979;-73
2022/09/18 09:16:51;;;;;;;4.63;3.20;;;;;;;18.17;71.62;98260.20;1712675;83;21133;-72
2022/09/18 09:19:30;;;;;;;4.73;3.33;;;;;;;18.23;71.61;98258.75;1710742;83;21046;-73
2022/09/18 09:22:15;;;;;;;;;;;;;;;18.31;71.60;98258.27;1689410;85;21076;-73
2022/09/18 09:25:15;;;;;;;5.60;3.30;;;;;;;18.42;71.45;98257.84;1666279;84;20434;-72
2022/09/18 09:28:15;;;;;;;4.33;3.10;;;;;;;18.44;71.01;98251.51;1712958;83;21089;-73
2022/09/18 09:30:59;;;;;;;4.50;3.40;;;;;;;18.46;70.92;98251.16;1666490;83;21534;-72
2022/09/18 09:33:41;;;;;;;5.33;3.47;;;;;;;18.50;70.67;98247.92;1710924;83;47655;-74
2022/09/18 09:36:17;;;;;;;6.03;4.75;;;;;;;18.54;70.55;98247.97;1715427;82;21225;-72
2022/09/18 09:39:02;;;;;;;6.03;4.73;;;;;;;18.61;70.55;98249.41;1712552;83;21416;-73
2022/09/18 09:41:39;;;;;;;6.10;4.60;;;;;;;18.66;70.40;98245.05;1714759;83;21099;-72
2022/09/18 09:44:27;;;;;;;7.13;6.10;;;;;;;18.66;70.19;98243.69;1686766;85;21162;-74
2022/09/18 09:47:32;;;;;;;7.87;6.73;;;;;;;18.71;70.26;98246.83;1682262;84;20972;-73
2022/09/18 09:50:31;;;;;;;8.63;7.73;;;;;;;18.77;70.18;98251.39;1686488;85;21796;-73
2022/09/18 09:53:02;;;;;;;9.37;8.43;;;;;;;18.83;70.05;98251.84;1714256;83;20995;-73
2022/09/18 09:55:37;;;;;;;9.00;8.10;;;;;;;18.88;69.87;98260.97;1715676;82;21138;-73
2022/09/18 09:58:41;;;;;;;10.33;8.43;;;;;;;18.90;69.76;98265.45;1712587;83;21565;-73
2022/09/18 10:01:28;;;;;;;10.20;8.70;;;;;;;18.92;69.55;98257.19;1711068;82;21568;-72
2022/09/18 10:04:18;;;;;;;10.30;8.87;;;;;;;18.97;69.44;98262.25;1709943;83;21291;-74
2022/09/18 10:06:59;;;;;;;11.40;9.83;;;;;;;19.02;69.41;98259.00;1709530;83;21134;-74
2022/09/18 10:09:46;;;;;;;12.63;9.93;;;;;;;19.06;69.33;98262.55;1711881;83;21063;-73
2022/09/18 10:12:50;;;;;;;12.10;10.37;;;;;;;19.08;69.17;98267.00;1710385;83;21023;-73
2022/09/18 10:15:32;;;;;;;15.60;12.23;;;;;;;19.08;69.07;98263.72;1709754;82;21038;-73
2022/09/18 10:18:02;;;;;;;15.30;12.47;;;;;;;19.08;69.00;98254.83;1710115;83;21210;-74
2022/09/18 10:20:30;;;;;;;13.80;12.37;;;;;;;19.08;69.01;98250.77;1705524;83;21075;-73
2022/09/18 10:23:05;;;;;;;12.43;11.07;;;;;;;19.11;68.99;98251.39;1711445;83;21081;-74
2022/09/18 10:25:48;;;;;;;14.07;11.40;;;;;;;19.12;68.77;98250.26;1707241;83;21035;-75
2022/09/18 10:28:15;;;;;;;13.47;12.07;;;;;;;19.05;68.79;98255.02;1712426;83;21569;-73
2022/09/18 10:31:07;;;;;;;13.83;12.33;;;;;;;19.05;68.92;98258.27;1707998;83;21262;-74
2022/09/18 10:33:50;;;;;;;14.20;12.30;;;;;;;19.06;68.95;98259.84;1709008;83;21095;-73
2022/09/18 10:36:36;;;;;;;12.37;11.03;;;;;;;19.09;69.06;98260.47;1707163;83;21011;-73
2022/09/18 10:39:35;;;;;;;13.47;12.07;;;;;;;19.12;68.92;98257.02;1710774;83;21023;-73
2022/09/18 10:42:13;;;;;;;15.80;11.70;;;;;;;19.14;68.84;98246.59;1686654;85;21675;-73
2022/09/18 10:44:44;;;;;;;12.20;11.00;;;;;;;19.19;68.89;98240.86;1698596;83;21819;-73
2022/09/18 10:47:23;;;;;;;13.67;10.73;;;;;;;19.26;68.96;98247.69;1714397;83;21035;-74
2022/09/18 10:50:07;;;;;;;12.13;10.73;;;;;;;19.31;68.92;98237.88;1713816;83;21047;-74
2022/09/18 10:52:45;;;;;;;11.30;10.10;;;;;;;19.38;68.87;98236.61;1709274;82;20967;-73
2022/09/18 10:55:23;;;;;;;11.10;10.00;;;;;;;19.44;68.73;98241.09;1722372;82;21106;-72
2022/09/18 10:58:13;;;;;;;10.87;9.77;;;;;;;19.45;68.68;98245.38;1715170;82;21139;-75
2022/09/18 11:00:50;;;;;;;9.67;8.43;;;;;;;19.45;68.62;98247.50;1717810;82;21680;-73
2022/09/18 11:03:39;;;;;;;9.30;8.33;;;;;;;19.44;68.50;98246.51;1711941;83;21058;-74
2022/09/18 11:06:15;;;;;;;9.73;8.33;;;;;;;19.42;68.51;98238.77;1685738;85;21078;-74
2022/09/18 11:08:47;;;;;;;8.73;7.80;;;;;;;19.45;68.43;98229.91;1694712;83;21046;-74
2022/09/18 11:11:31;;;;;;;9.93;7.87;;;;;;;19.49;68.51;98221.04;1715436;82;21109;-74
2022/09/18 11:14:16;;;;;;;8.70;7.87;;;;;;;19.57;68.52;98213.17;1713833;83;21087;-73
2022/09/18 11:16:55;;;;;;;8.33;6.87;;;;;;;19.62;68.30;98203.36;1702336;83;21054;-73
2022/09/18 11:19:32;;;;;;;8.38;7.12;;;;;;;19.62;68.19;98202.78;1707543;83;21483;-73
2022/09/18 11:22:08;;;;;;;9.93;8.97;;;;;;;19.63;68.15;98206.27;1710265;82;21179;-73
2022/09/18 11:24:38;;;;;;;8.80;7.70;;;;;;;19.63;68.26;98203.55;1711122;83;21094;-74
2022/09/18 11:27:21;;;;;;;9.20;8.20;;;;;;;19.65;68.20;98198.00;1708040;82;21012;-73
2022/09/18 11:29:48;;;;;;;10.18;8.58;;;;;;;19.69;68.21;98192.61;1710313;83;21137;-73
2022/09/18 11:32:26;;;;;;;9.70;7.83;;;;;;;19.74;68.16;98184.70;1709942;82;21063;-74
2022/09/18 11:34:57;;;;;;;8.67;7.77;;;;;;;19.78;68.04;98185.53;1710298;83;21039;-73
2022/09/18 11:37:38;;;;;;;9.25;8.10;;;;;;;19.80;68.04;98181.27;1713146;82;22010;-74
2022/09/18 11:40:30;;;;;;;8.60;7.70;;;;;;;19.85;68.04;98178.22;1709251;82;21149;-73
2022/09/18 11:43:01;;;;;;;9.10;7.55;;;;;;;19.94;68.14;98171.69;1710067;83;21226;-73
2022/09/18 11:45:54;;;;;;;8.37;7.10;;;;;;;20.05;68.39;98164.41;1712277;82;21039;-73
2022/09/18 11:48:33;;;;;;;9.07;7.40;;;;;;;20.09;68.49;98158.43;1720509;82;21094;-73
2022/09/18 11:51:03;;;;;;;8.50;7.37;;;;;;;20.20;68.65;98150.34;1694420;82;21672;-74
2022/09/18 11:53:40;;;;;;;8.97;7.27;;;;;;;20.31;68.60;98147.13;1668973;84;21063;-73
2022/09/18 11:56:28;;;;;;;9.43;7.63;;;;;;;20.42;68.45;98133.61;1703428;82;21108;-74
2022/09/18 11:59:02;;;;;;;10.67;8.77;;;;;;;20.48;68.00;98132.09;1709534;82;21629;-73
2022/09/18 12:01:37;;;;;;;11.17;8.70;;;;;;;20.58;68.09;98123.24;1722501;81;21557;-74
2022/09/18 12:04:48;;;;;;;11.27;9.33;;;;;;;20.70;68.03;98117.47;1576321;83;10000542;-73
2022/09/18 12:07:30;;;;;;;10.20;9.13;;;;;;;20.87;68.08;98097.55;1713395;82;21689;-73
2022/09/18 12:10:32;;;;;;;12.27;10.23;;;;;;;21.08;68.20;98090.77;1710348;82;21542;-74
2022/09/18 12:13:27;;;;;;;12.55;11.18;;;;;;;21.34;68.03;98088.84;1686321;83;21645;-73
2022/09/18 12:16:12;;;;;;;12.43;10.70;;;;;;;21.64;67.91;98092.52;1696011;82;22007;-73